Creek Data

    Home     View Charts     View Raw Data     Messages

ID Distance Battery Voltage Battery Current Internal Temp Internal Humidity External Temp Solar Input rssi snr Time Stamp Record
34807 0.0 3.99 -5 47 42 48 0 -81 7 03/12/2025 07:45 PM 16548
34806 0.0 4.04 -5 47 42 48 0 -81 8 03/12/2025 07:30 PM 16547
34805 0.0 3.99 -5 47 42 48 0.5 -80 7 03/12/2025 07:15 PM 16546
34804 15.4 3.98 -9 47 42 48 3.9 -81 6 03/12/2025 07:00 PM 16545
34803 0.0 3.98 -10 47 42 48 3.3 -80 8 03/12/2025 06:45 PM 16544
34802 0.0 4.05 -5 47 42 48 4.1 -80 7 03/12/2025 06:30 PM 16543
34801 15.3 4.00 0 47 42 47 4.5 -80 7 03/12/2025 06:15 PM 16542
34800 0.0 4.00 0 47 43 47 4.5 -78 8 03/12/2025 06:00 PM 16541
34799 0.0 4.06 0 47 43 47 4.5 -79 8 03/12/2025 05:45 PM 16540
34798 0.0 4.02 0 47 43 47 4.5 -79 7 03/12/2025 05:31 PM 16539
34797 0.0 4.08 0 47 43 48 4.5 -78 8 03/12/2025 05:15 PM 16538
34796 0.0 4.07 5 47 43 48 4.5 -80 8 03/12/2025 05:00 PM 16537
34795 0.0 4.10 -6 48 43 48 4.5 -78 8 03/12/2025 04:45 PM 16536
34794 0.0 4.09 0 48 44 48 4.5 -80 8 03/12/2025 04:30 PM 16535
34793 0.0 4.05 16 49 44 48 4.5 -83 8 03/12/2025 04:15 PM 16534
34792 21.5 4.00 0 53 42 54 4.5 -85 7 03/12/2025 04:00 PM 16533
34791 0.0 4.06 0 54 42 55 4.5 -83 7 03/12/2025 03:46 PM 16532
34790 15.3 4.09 8 54 42 55 4.5 -81 7 03/12/2025 03:30 PM 16531
34789 25.6 4.11 10 55 41 57 4.5 -92 7 03/12/2025 03:15 PM 16530
34788 0.0 4.05 14 57 41 58 4.5 -78 7 03/12/2025 03:01 PM 16529
34787 15.3 4.07 32 58 40 57 4.5 -80 8 03/12/2025 02:45 PM 16528
34786 0.0 4.03 20 59 39 59 4.5 -75 8 03/12/2025 02:30 PM 16527
34785 0.0 4.06 0 59 39 59 4.5 -78 8 03/12/2025 02:15 PM 16526
34784 0.0 4.03 0 58 40 58 5.1 -78 9 03/12/2025 01:45 PM 16524
34783 0.0 4.09 49 59 39 59 4.5 -77 7 03/12/2025 01:31 PM 16523